Time;durP1;ratioP1;P1;durP2;ratioP2;P2;SDS_P1;SDS_P2;PMS_P1;PMS_P2;Temp;Humidity;BMP_temperature;BMP_pressure;BME280_temperature;BME280_humidity;BME280_pressure;Samples;Min_cycle;Max_cycle;Signal;HPM_P1;HPM_P2
2021/04/12 00:00:20;;;;;;;9.30;6.55;;;4.70;99.90;;;;;;4361853;32;20081;-56
2021/04/12 00:03:11;;;;;;;8.35;6.47;;;4.80;99.90;;;;;;4378985;32;20081;-57
2021/04/12 00:06:08;;;;;;;9.80;7.18;;;4.70;99.90;;;;;;4376012;32;20157;-57
2021/04/12 00:09:00;;;;;;;8.43;6.40;;;4.70;99.90;;;;;;4371472;32;20089;-57
2021/04/12 00:11:31;;;;;;;8.18;6.40;;;4.70;99.90;;;;;;4363569;32;20066;-56
2021/04/12 00:14:25;;;;;;;8.63;6.25;;;4.70;99.90;;;;;;4385040;32;20073;-56
2021/04/12 00:16:55;;;;;;;9.10;6.00;;;4.80;99.90;;;;;;4368314;32;20085;-57
2021/04/12 00:19:30;;;;;;;8.77;6.47;;;4.80;99.90;;;;;;4387513;32;20178;-56
2021/04/12 00:22:46;;;;;;;7.60;6.07;;;4.80;99.90;;;;;;4355858;32;20077;-57
2021/04/12 00:25:21;;;;;;;7.75;6.20;;;4.80;99.90;;;;;;4367879;32;20121;-57
2021/04/12 00:28:29;;;;;;;8.88;6.70;;;4.80;99.90;;;;;;4376251;32;20065;-58
2021/04/12 00:31:15;;;;;;;9.18;6.57;;;4.80;99.90;;;;;;4370127;32;20058;-57
2021/04/12 00:33:55;;;;;;;8.82;6.55;;;4.90;99.90;;;;;;4369315;32;20088;-57
2021/04/12 00:36:42;;;;;;;10.18;6.72;;;4.80;99.90;;;;;;4367728;32;20152;-56
2021/04/12 00:39:21;;;;;;;9.70;6.47;;;4.80;99.90;;;;;;4376949;32;20495;-56
2021/04/12 00:42:43;;;;;;;8.20;6.47;;;4.80;99.90;;;;;;4364244;32;20082;-58
2021/04/12 00:45:37;;;;;;;8.93;6.55;;;4.80;99.90;;;;;;4389537;32;20082;-56
2021/04/12 00:49:19;;;;;;;8.35;6.50;;;4.90;99.90;;;;;;4377596;32;20085;-56
2021/04/12 00:52:25;;;;;;;9.70;6.45;;;4.90;99.90;;;;;;4303456;33;20075;-57
2021/04/12 00:55:46;;;;;;;8.50;6.12;;;4.80;99.90;;;;;;4316414;33;20076;-57
2021/04/12 00:58:24;;;;;;;7.50;5.87;;;4.80;99.90;;;;;;4372364;32;20517;-56
2021/04/12 01:01:05;;;;;;;10.38;6.72;;;4.80;99.90;;;;;;4380595;32;20104;-58
2021/04/12 01:04:08;;;;;;;8.30;5.95;;;4.90;99.90;;;;;;4381442;32;20081;-57
2021/04/12 01:06:40;;;;;;;7.95;5.85;;;4.80;99.90;;;;;;4382394;32;20524;-56
2021/04/12 01:09:32;;;;;;;7.57;5.97;;;4.90;99.90;;;;;;4389544;32;20073;-57
2021/04/12 01:12:45;;;;;;;7.90;6.40;;;4.80;99.90;;;;;;4382475;32;20084;-57
2021/04/12 01:15:30;;;;;;;8.23;6.00;;;4.80;99.90;;;;;;4378157;32;20062;-57
2021/04/12 01:18:33;;;;;;;7.82;5.60;;;4.80;99.90;;;;;;4386079;32;20058;-56
2021/04/12 01:21:45;;;;;;;7.85;6.10;;;4.80;99.90;;;;;;4390516;32;20078;-57
2021/04/12 01:24:29;;;;;;;8.80;6.22;;;4.80;99.90;;;;;;4385473;32;20072;-56
2021/04/12 01:27:20;;;;;;;8.32;6.43;;;4.80;99.90;;;;;;4368618;32;20149;-57
2021/04/12 01:30:51;;;;;;;8.57;6.18;;;4.80;99.90;;;;;;4382469;32;20061;-57
2021/04/12 01:33:49;;;;;;;8.18;5.75;;;5.00;99.90;;;;;;4369498;32;20077;-57
2021/04/12 01:36:32;;;;;;;7.90;6.00;;;4.90;99.90;;;;;;4384301;32;20078;-56
2021/04/12 01:39:25;;;;;;;8.25;5.22;;;4.90;99.90;;;;;;4380611;32;20121;-58
2021/04/12 01:42:03;;;;;;;7.62;5.60;;;5.00;99.90;;;;;;4374964;32;20493;-57
2021/04/12 01:44:47;;;;;;;9.63;6.55;;;4.90;99.90;;;;;;4361680;32;20483;-58
2021/04/12 01:47:39;;;;;;;9.57;6.43;;;4.80;99.90;;;;;;4379193;32;20078;-56
2021/04/12 01:50:35;;;;;;;8.95;6.22;;;4.80;99.90;;;;;;4384905;32;20094;-57
2021/04/12 01:53:46;;;;;;;8.50;6.25;;;4.90;99.90;;;;;;4365539;32;20090;-56
2021/04/12 01:56:37;;;;;;;9.88;6.40;;;4.80;99.90;;;;;;4360497;32;20077;-56
2021/04/12 01:59:21;;;;;;;8.88;6.22;;;4.80;99.90;;;;;;4365805;32;20073;-58
2021/04/12 02:02:02;;;;;;;9.32;6.53;;;4.80;99.90;;;;;;4382082;32;20181;-56
2021/04/12 02:04:52;;;;;;;9.70;6.55;;;4.90;99.90;;;;;;4392676;32;20077;-56
2021/04/12 02:07:28;;;;;;;9.40;6.32;;;4.90;99.90;;;;;;4378920;32;20066;-57
2021/04/12 02:10:33;;;;;;;8.25;5.90;;;4.90;99.90;;;;;;4387025;32;20059;-56
2021/04/12 02:13:32;;;;;;;8.85;6.65;;;4.90;99.90;;;;;;4364829;32;20558;-57
2021/04/12 02:16:42;;;;;;;11.00;6.55;;;4.90;99.90;;;;;;4375787;32;20073;-57
2021/04/12 02:19:31;;;;;;;8.90;6.55;;;5.00;99.90;;;;;;4388456;32;20077;-57
2021/04/12 02:22:50;;;;;;;9.60;6.40;;;5.00;99.90;;;;;;4358669;32;20105;-57
2021/04/12 02:26:10;;;;;;;8.75;6.25;;;5.20;99.90;;;;;;4352636;32;20066;-57
2021/04/12 02:28:47;;;;;;;9.75;6.80;;;5.20;99.90;;;;;;4332172;32;20066;-56
2021/04/12 02:31:38;;;;;;;;;;;5.00;99.90;;;;;;4362898;32;20427;-57
2021/04/12 02:34:48;;;;;;;9.68;6.78;;;5.10;99.90;;;;;;4363358;32;19981;-56
2021/04/12 02:37:36;;;;;;;10.35;7.18;;;5.10;99.90;;;;;;4364240;32;20091;-58
2021/04/12 02:40:22;;;;;;;9.15;6.80;;;4.90;99.90;;;;;;4377266;32;20058;-58
2021/04/12 02:43:42;;;;;;;9.00;6.78;;;5.00;99.90;;;;;;4350536;32;20528;-56
2021/04/12 02:46:25;;;;;;;11.20;7.68;;;5.00;99.90;;;;;;4300945;33;20102;-56
2021/04/12 02:48:59;;;;;;;10.05;7.10;;;5.00;99.90;;;;;;4311619;33;20091;-58
2021/04/12 02:51:44;;;;;;;9.75;7.47;;;5.00;99.90;;;;;;4335622;32;20155;-57
2021/04/12 02:54:22;;;;;;;11.52;8.70;;;5.00;99.90;;;;;;4332469;32;20101;-57
2021/04/12 02:57:09;;;;;;;11.35;7.32;;;5.00;99.90;;;;;;4372884;32;20496;-58
2021/04/12 02:59:58;;;;;;;11.52;7.22;;;5.10;99.90;;;;;;4372604;32;20081;-57
2021/04/12 03:02:43;;;;;;;12.23;8.10;;;5.10;99.90;;;;;;4359061;32;20108;-58
2021/04/12 03:05:55;;;;;;;9.90;7.43;;;5.20;99.90;;;;;;4381519;32;20102;-57
2021/04/12 03:08:42;;;;;;;9.65;7.50;;;5.30;99.90;;;;;;4370633;32;20066;-57
2021/04/12 03:11:45;;;;;;;9.32;7.00;;;5.30;99.90;;;;;;4364414;32;20089;-58
2021/04/12 03:14:26;;;;;;;12.25;7.10;;;5.20;99.90;;;;;;4376895;32;20170;-57
2021/04/12 03:17:29;;;;;;;9.60;6.65;;;5.30;99.90;;;;;;4377219;32;20491;-58
2021/04/12 03:20:20;;;;;;;9.32;6.75;;;5.30;99.90;;;;;;4354384;32;20085;-57
2021/04/12 03:23:18;;;;;;;10.63;6.87;;;5.30;99.90;;;;;;4377145;32;20067;-56
2021/04/12 03:25:55;;;;;;;10.52;7.53;;;5.30;99.90;;;;;;4347044;32;20075;-57
2021/04/12 03:29:02;;;;;;;10.52;7.25;;;5.40;99.90;;;;;;4374731;32;20073;-57
2021/04/12 03:32:06;;;;;;;11.77;7.65;;;5.50;99.90;;;;;;4379214;32;20170;-56
2021/04/12 03:34:51;;;;;;;10.02;7.93;;;5.40;99.90;;;;;;4389756;32;20062;-56
2021/04/12 03:38:06;;;;;;;10.05;7.72;;;5.30;99.90;;;;;;4352996;32;20076;-58
2021/04/12 03:40:40;;;;;;;9.80;6.97;;;5.40;99.90;;;;;;4372215;32;20063;-57
2021/04/12 03:43:50;;;;;;;10.27;7.45;;;5.60;99.90;;;;;;4360782;32;20054;-57
2021/04/12 03:46:37;;;;;;;13.88;7.57;;;5.60;99.90;;;;;;4383987;32;20168;-56
2021/04/12 03:49:27;;;;;;;10.02;7.37;;;5.60;99.90;;;;;;4378735;32;20066;-57
2021/04/12 03:52:26;;;;;;;10.93;7.87;;;5.60;99.90;;;;;;4384510;32;20505;-57
2021/04/12 03:55:34;;;;;;;11.12;7.80;;;5.80;99.90;;;;;;4376550;32;20069;-57
2021/04/12 03:58:27;;;;;;;11.02;6.72;;;6.00;99.90;;;;;;4374738;32;20070;-56
2021/04/12 04:01:21;;;;;;;8.30;6.43;;;6.00;99.90;;;;;;4362652;32;20066;-57
2021/04/12 04:04:26;;;;;;;8.73;6.25;;;6.00;99.90;;;;;;4380012;32;20077;-56
2021/04/12 04:07:25;;;;;;;12.98;6.40;;;6.10;99.90;;;;;;4379723;32;20447;-57
2021/04/12 04:10:36;;;;;;;9.60;5.70;;;6.20;99.90;;;;;;4367229;32;20061;-56
2021/04/12 04:13:40;;;;;;;6.50;4.43;;;6.30;99.90;;;;;;4387661;32;20066;-57
2021/04/12 04:16:53;;;;;;;9.60;6.55;;;6.40;99.90;;;;;;4384853;32;20070;-57
2021/04/12 04:19:22;;;;;;;10.07;5.95;;;6.50;99.90;;;;;;4392604;32;20142;-57
2021/04/12 04:22:18;;;;;;;13.70;6.85;;;6.50;99.90;;;;;;4384294;32;20185;-56
2021/04/12 04:25:25;;;;;;;10.83;6.00;;;6.70;99.90;;;;;;4383902;32;20070;-56
2021/04/12 04:28:24;;;;;;;12.23;7.20;;;6.70;99.90;;;;;;4385610;32;20061;-58
2021/04/12 04:31:30;;;;;;;7.95;6.30;;;6.60;99.90;;;;;;4383853;32;20070;-57
2021/04/12 04:34:32;;;;;;;9.20;6.55;;;6.80;99.90;;;;;;4372222;32;20149;-57
2021/04/12 04:37:24;;;;;;;9.63;6.75;;;6.90;99.90;;;;;;4390627;32;20104;-56
2021/04/12 04:39:55;;;;;;;9.63;7.03;;;6.90;99.90;;;;;;4377947;32;20085;-57
2021/04/12 04:42:59;;;;;;;10.02;6.95;;;6.80;99.90;;;;;;4385801;32;20073;-58
2021/04/12 04:45:49;;;;;;;11.32;7.03;;;7.00;99.90;;;;;;4391854;32;20138;-55
2021/04/12 04:48:53;;;;;;;9.43;7.22;;;7.00;99.90;;;;;;4385017;32;20479;-57
2021/04/12 04:51:42;;;;;;;8.52;6.35;;;7.00;99.90;;;;;;4381374;32;20153;-56
2021/04/12 04:54:47;;;;;;;8.07;6.85;;;7.10;99.90;;;;;;4385105;32;20589;-57
2021/04/12 04:57:57;;;;;;;10.73;6.43;;;7.10;99.90;;;;;;4393125;32;20085;-56
2021/04/12 05:00:57;;;;;;;9.70;6.60;;;7.30;99.90;;;;;;4378431;32;20084;-58
2021/04/12 05:03:57;;;;;;;10.40;6.75;;;7.10;99.90;;;;;;4391767;32;20100;-57
2021/04/12 05:07:24;;;;;;;11.48;6.57;;;7.30;99.90;;;;;;4383352;32;20081;-57
2021/04/12 05:10:35;;;;;;;8.30;6.35;;;7.40;99.90;;;;;;4331225;33;20465;-56
2021/04/12 05:13:22;;;;;;;9.85;6.10;;;7.50;99.90;;;;;;4318631;33;20154;-56
2021/04/12 05:16:30;;;;;;;10.52;7.15;;;7.50;99.90;;;;;;4364521;32;20086;-57
2021/04/12 05:19:27;;;;;;;11.02;6.72;;;7.70;99.90;;;;;;4373867;32;20086;-56
2021/04/12 05:22:17;;;;;;;7.72;5.18;;;7.80;99.90;;;;;;4382264;32;20081;-57
2021/04/12 05:25:21;;;;;;;10.45;6.32;;;7.90;99.90;;;;;;4383695;32;20074;-57
2021/04/12 05:28:34;;;;;;;8.75;6.15;;;8.00;99.90;;;;;;4380608;32;20073;-57
2021/04/12 05:31:33;;;;;;;10.82;7.22;;;8.30;99.90;;;;;;4390473;32;20073;-56
2021/04/12 05:34:21;;;;;;;13.38;7.60;;;8.80;99.90;;;;;;4382128;32;20082;-56
2021/04/12 05:37:32;;;;;;;9.85;7.12;;;8.80;99.90;;;;;;4368131;32;20090;-55
2021/04/12 05:40:37;;;;;;;13.45;7.10;;;8.80;99.90;;;;;;4383539;32;20093;-57
2021/04/12 05:43:53;;;;;;;12.25;7.15;;;9.20;99.90;;;;;;4361306;32;20124;-58
2021/04/12 05:46:34;;;;;;;12.23;7.87;;;9.10;99.90;;;;;;4371493;32;20227;-56
2021/04/12 05:49:34;;;;;;;12.48;7.93;;;9.40;99.90;;;;;;4376464;32;20456;-57
2021/04/12 05:52:24;;;;;;;11.65;7.40;;;9.20;99.90;;;;;;4382776;32;20477;-56
2021/04/12 05:55:11;;;;;;;13.00;8.32;;;10.00;99.90;;;;;;4380171;32;20081;-56
2021/04/12 05:58:01;;;;;;;11.95;7.40;;;9.90;99.90;;;;;;4379006;32;20496;-56
2021/04/12 06:00:52;;;;;;;11.27;6.90;;;10.00;99.90;;;;;;4384543;32;20101;-56
2021/04/12 06:03:42;;;;;;;11.88;7.40;;;10.30;99.90;;;;;;4391991;32;20085;-57
2021/04/12 06:06:42;;;;;;;11.52;6.62;;;10.20;99.90;;;;;;4371785;32;20170;-56
2021/04/12 06:09:38;;;;;;;11.95;7.80;;;10.40;99.90;;;;;;4389783;32;20070;-57
2021/04/12 06:12:34;;;;;;;11.75;7.32;;;10.80;99.90;;;;;;4384136;32;20085;-57
2021/04/12 06:15:36;;;;;;;10.88;7.65;;;10.70;99.90;;;;;;4365052;32;20073;-57
2021/04/12 06:18:41;;;;;;;11.35;7.28;;;11.00;99.90;;;;;;4369791;32;20081;-58
2021/04/12 06:21:26;;;;;;;10.38;6.82;;;10.70;99.90;;;;;;4361569;32;20504;-57
2021/04/12 06:24:41;;;;;;;10.48;7.75;;;11.00;99.90;;;;;;4376547;32;20158;-56
2021/04/12 06:27:36;;;;;;;13.60;7.90;;;11.10;99.90;;;;;;4388729;32;20081;-55
2021/04/12 06:30:17;;;;;;;10.68;7.80;;;11.10;99.90;;;;;;4375961;32;20164;-56
2021/04/12 06:33:02;;;;;;;14.07;8.73;;;11.20;99.90;;;;;;4387896;32;20437;-56
2021/04/12 06:36:38;;;;;;;9.98;6.68;;;11.50;99.90;;;;;;4386299;32;20081;-57
2021/04/12 06:39:41;;;;;;;12.45;8.50;;;11.50;99.90;;;;;;4288992;33;20075;-56
2021/04/12 06:42:57;;;;;;;14.18;7.78;;;11.60;99.90;;;;;;4302526;33;20153;-56
2021/04/12 06:45:53;;;;;;;10.98;6.53;;;11.80;99.90;;;;;;4375454;32;20511;-58
2021/04/12 06:48:44;;;;;;;11.35;7.97;;;12.20;99.90;;;;;;4359929;32;20069;-56
2021/04/12 06:51:51;;;;;;;13.18;9.63;;;12.00;99.90;;;;;;4365826;32;20078;-55
2021/04/12 06:55:14;;;;;;;13.27;10.27;;;11.90;99.90;;;;;;4370185;32;20417;-55
2021/04/12 06:58:24;;;;;;;11.80;8.45;;;12.00;99.90;;;;;;4378322;32;20077;-56
2021/04/12 07:01:23;;;;;;;14.75;8.90;;;12.00;99.90;;;;;;4383533;32;20077;-56
2021/04/12 07:04:14;;;;;;;12.00;8.57;;;12.00;99.90;;;;;;4381905;32;20085;-56
2021/04/12 07:06:44;;;;;;;12.60;8.02;;;12.10;99.90;;;;;;4368025;32;20469;-56
2021/04/12 07:09:42;;;;;;;11.50;6.93;;;12.20;99.90;;;;;;4389120;32;20088;-55
2021/04/12 07:13:05;;;;;;;11.88;7.35;;;12.40;99.90;;;;;;4382081;32;20093;-55
2021/04/12 07:15:43;;;;;;;13.93;8.40;;;12.50;99.90;;;;;;4375245;32;20148;-55
2021/04/12 07:18:43;;;;;;;13.20;8.90;;;12.50;99.90;;;;;;4383616;32;20069;-55
2021/04/12 07:22:02;;;;;;;11.50;7.30;;;12.80;99.90;;;;;;4364800;32;20054;-55
2021/04/12 07:24:46;;;;;;;10.57;7.25;;;12.70;99.90;;;;;;4388047;32;20067;-55
2021/04/12 07:28:10;;;;;;;12.20;7.70;;;13.00;99.90;;;;;;4366503;32;20127;-57
2021/04/12 07:30:51;;;;;;;15.57;8.93;;;13.30;99.90;;;;;;4322712;33;20658;-56
2021/04/12 07:33:52;;;;;;;12.37;8.18;;;13.20;99.90;;;;;;4317567;33;20072;-56
2021/04/12 07:37:01;;;;;;;9.27;6.30;;;13.30;99.90;;;;;;4378682;32;20173;-56
2021/04/12 07:39:39;;;;;;;12.65;8.15;;;13.30;99.90;;;;;;4379169;32;20069;-56
2021/04/12 07:42:36;;;;;;;14.10;9.18;;;13.30;99.90;;;;;;4385417;32;20477;-56
2021/04/12 07:45:53;;;;;;;12.65;8.48;;;13.40;99.90;;;;;;4400756;32;20064;-56
2021/04/12 07:48:51;;;;;;;9.80;7.37;;;13.70;99.90;;;;;;4391766;32;20601;-57
2021/04/12 07:52:07;;;;;;;13.48;8.25;;;13.90;99.90;;;;;;4357887;32;20070;-56
2021/04/12 07:55:10;;;;;;;15.27;10.60;;;14.20;99.90;;;;;;4360310;32;20062;-56
2021/04/12 07:57:51;;;;;;;9.85;6.45;;;14.00;99.90;;;;;;4368607;32;20447;-56
2021/04/12 08:01:14;;;;;;;12.23;8.73;;;14.40;99.90;;;;;;4386656;32;20520;-55
2021/04/12 08:04:17;;;;;;;16.12;9.10;;;14.30;99.90;;;;;;4383454;32;20070;-56
2021/04/12 08:07:05;;;;;;;13.82;8.60;;;14.50;99.90;;;;;;4380488;32;20071;-56
2021/04/12 08:10:01;;;;;;;16.92;9.07;;;14.90;99.90;;;;;;4382427;32;20509;-55
2021/04/12 08:12:48;;;;;;;17.33;8.82;;;14.90;99.90;;;;;;4383645;32;20080;-55
2021/04/12 08:15:52;;;;;;;13.73;8.35;;;15.10;99.90;;;;;;4379293;32;20082;-55
2021/04/12 08:18:34;;;;;;;9.10;6.22;;;15.00;99.90;;;;;;4373164;32;20556;-56
2021/04/12 08:21:47;;;;;;;11.70;8.50;;;15.70;99.90;;;;;;4380305;32;20141;-59
2021/04/12 08:24:57;;;;;;;10.18;7.30;;;15.60;99.90;;;;;;4365538;32;20511;-56
2021/04/12 08:28:06;;;;;;;21.45;7.87;;;15.50;99.90;;;;;;4381965;32;20150;-60
2021/04/12 08:30:47;;;;;;;13.20;7.87;;;15.70;99.90;;;;;;4377129;32;20528;-56
2021/04/12 08:33:37;;;;;;;9.18;6.97;;;15.80;99.90;;;;;;4391234;32;20500;-56
2021/04/12 08:36:45;;;;;;;14.60;7.72;;;15.80;99.90;;;;;;4385243;32;20089;-56
2021/04/12 08:39:47;;;;;;;12.82;8.02;;;15.70;99.90;;;;;;4390993;32;20460;-56
2021/04/12 08:42:39;;;;;;;12.43;7.60;;;15.90;99.90;;;;;;4371531;32;20113;-57
2021/04/12 08:45:35;;;;;;;12.75;7.90;;;16.00;99.90;;;;;;4390057;32;20459;-58
2021/04/12 08:48:40;;;;;;;12.27;7.35;;;16.30;99.90;;;;;;4390580;32;20155;-56
2021/04/12 08:51:13;;;;;;;9.98;7.53;;;16.70;99.90;;;;;;4394310;32;20115;-56
2021/04/12 08:54:17;;;;;;;10.50;7.15;;;16.50;99.90;;;;;;4379728;32;20434;-60
2021/04/12 08:57:03;;;;;;;13.57;8.13;;;16.90;99.90;;;;;;4383751;32;20619;-61
2021/04/12 09:00:00;;;;;;;12.40;7.68;;;16.60;99.90;;;;;;4378826;32;20108;-57
2021/04/12 09:03:17;;;;;;;11.10;7.32;;;16.60;99.90;;;;;;4382008;32;20074;-57
2021/04/12 09:06:08;;;;;;;13.82;7.75;;;17.00;99.90;;;;;;4386101;32;20096;-57
2021/04/12 09:09:11;;;;;;;15.88;8.73;;;16.80;99.90;;;;;;4393778;32;20101;-57
2021/04/12 09:12:00;;;;;;;12.13;7.12;;;16.90;99.90;;;;;;4363452;32;20066;-59
2021/04/12 09:14:38;;;;;;;12.50;7.80;;;16.90;99.90;;;;;;4376176;32;20089;-58
2021/04/12 09:17:16;;;;;;;12.10;7.32;;;16.90;99.90;;;;;;4389886;32;20092;-57
2021/04/12 09:20:30;;;;;;;13.07;7.75;;;17.00;99.90;;;;;;4379663;32;20552;-56
2021/04/12 09:23:13;;;;;;;13.43;7.37;;;17.30;99.90;;;;;;4374400;32;20504;-55
2021/04/12 09:26:19;;;;;;;11.48;7.07;;;17.70;99.90;;;;;;4378127;32;20077;-56
2021/04/12 09:29:22;;;;;;;13.93;7.37;;;17.90;99.90;;;;;;4390036;32;20070;-59
2021/04/12 09:32:34;;;;;;;12.02;6.87;;;17.80;99.90;;;;;;4376041;32;20165;-58
2021/04/12 09:35:38;;;;;;;10.73;6.60;;;18.50;99.90;;;;;;4383678;32;20073;-56
2021/04/12 09:38:37;;;;;;;10.25;6.43;;;17.80;99.90;;;;;;4375457;32;20535;-60
2021/04/12 09:41:20;;;;;;;12.23;6.72;;;18.20;99.90;;;;;;4383053;32;20142;-57
2021/04/12 09:44:01;;;;;;;10.50;6.47;;;18.20;99.90;;;;;;4361522;32;20097;-60
2021/04/12 09:47:05;;;;;;;14.60;7.03;;;18.30;99.90;;;;;;4383455;32;20074;-55
2021/04/12 09:50:10;;;;;;;14.10;6.60;;;18.60;99.90;;;;;;4387486;32;20100;-57
2021/04/12 09:53:12;;;;;;;10.48;6.37;;;18.30;99.90;;;;;;4360910;32;20071;-57
2021/04/12 09:56:14;;;;;;;10.57;6.47;;;18.60;99.90;;;;;;4331987;32;20501;-59
2021/04/12 09:59:22;;;;;;;12.32;6.60;;;18.80;99.90;;;;;;4385946;32;20612;-55
2021/04/12 10:02:21;;;;;;;10.60;6.62;;;18.80;99.90;;;;;;4374362;32;20577;-57
2021/04/12 10:04:53;;;;;;;9.85;6.15;;;18.60;99.90;;;;;;4381427;32;20098;-60
2021/04/12 10:08:16;;;;;;;9.20;6.15;;;18.90;99.90;;;;;;4390549;32;20507;-58
2021/04/12 10:11:00;;;;;;;10.82;6.47;;;18.90;99.90;;;;;;4349897;32;20070;-59
2021/04/12 10:14:10;;;;;;;9.48;6.50;;;18.70;99.90;;;;;;4386667;32;20145;-58
2021/04/12 10:16:40;;;;;;;13.93;6.30;;;18.90;99.90;;;;;;4383550;32;20585;-59
2021/04/12 10:19:16;;;;;;;12.55;6.60;;;19.10;99.90;;;;;;4374487;32;20073;-59
2021/04/12 10:22:14;;;;;;;10.10;5.55;;;18.80;99.90;;;;;;4351642;32;20109;-58
2021/04/12 10:25:03;;;;;;;11.43;6.62;;;18.70;99.90;;;;;;4378285;32;20105;-58
2021/04/12 10:27:51;;;;;;;11.98;6.57;;;18.80;99.90;;;;;;4365218;32;20070;-60
2021/04/12 10:30:37;;;;;;;11.95;6.25;;;18.70;99.90;;;;;;4368262;32;20516;-60
2021/04/12 10:33:33;;;;;;;14.05;6.68;;;18.80;99.90;;;;;;4375362;32;20065;-59
2021/04/12 10:36:05;;;;;;;12.88;7.20;;;19.00;99.90;;;;;;4363118;32;20065;-59
2021/04/12 10:38:37;;;;;;;11.05;7.45;;;18.90;99.90;;;;;;4364873;32;20502;-62
2021/04/12 10:41:26;;;;;;;10.52;6.20;;;18.80;99.50;;;;;;4363713;32;20503;-61
2021/04/12 10:44:08;;;;;;;15.80;7.32;;;18.80;99.90;;;;;;4378600;32;20161;-60
2021/04/12 10:46:43;;;;;;;13.98;6.62;;;19.00;99.90;;;;;;4381060;32;20069;-60
2021/04/12 10:49:16;;;;;;;9.47;6.10;;;19.00;99.90;;;;;;4366911;32;20076;-62
2021/04/12 10:52:08;;;;;;;10.60;5.78;;;19.20;99.30;;;;;;4364639;32;20079;-62
2021/04/12 10:54:58;;;;;;;16.25;7.03;;;19.20;98.80;;;;;;4371413;32;20082;-59
2021/04/12 10:57:25;;;;;;;9.57;6.37;;;19.50;98.30;;;;;;4386238;32;20147;-57
2021/04/12 11:00:03;;;;;;;10.38;6.55;;;19.70;97.40;;;;;;4385466;32;20671;-59
2021/04/12 11:03:00;;;;;;;13.00;6.68;;;19.70;97.30;;;;;;4376434;32;20081;-61
2021/04/12 11:05:27;;;;;;;14.57;7.53;;;19.80;97.00;;;;;;4380681;32;20224;-57
2021/04/12 11:08:36;;;;;;;9.85;6.47;;;20.00;96.80;;;;;;4349108;32;20054;-59
2021/04/12 11:11:23;;;;;;;10.35;6.40;;;19.70;96.70;;;;;;4396502;32;20436;-58
2021/04/12 11:14:37;;;;;;;;;;;19.80;97.00;;;;;;4361884;32;20057;-56
2021/04/12 11:17:12;;;;;;;10.15;5.40;;;20.00;96.40;;;;;;4349655;32;20540;-59
2021/04/12 11:20:17;;;;;;;13.55;6.07;;;19.90;96.50;;;;;;4361808;32;20493;-62
2021/04/12 11:23:13;;;;;;;11.05;6.95;;;20.00;97.00;;;;;;4383538;32;20444;-59
2021/04/12 11:25:49;;;;;;;11.37;7.07;;;19.90;96.60;;;;;;4352996;32;20096;-63
2021/04/12 11:28:38;;;;;;;9.70;6.28;;;20.40;96.10;;;;;;4381198;32;20074;-59
2021/04/12 11:31:22;;;;;;;9.30;6.28;;;20.10;96.40;;;;;;4376481;32;20595;-59
2021/04/12 11:34:27;;;;;;;7.20;5.93;;;20.40;95.90;;;;;;4377543;32;20100;-57
2021/04/12 11:37:02;;;;;;;11.20;6.85;;;20.20;95.90;;;;;;4375577;32;20120;-59
2021/04/12 11:39:31;;;;;;;7.93;5.57;;;20.30;96.20;;;;;;4386560;32;20077;-59
2021/04/12 11:42:19;;;;;;;10.93;7.03;;;20.60;95.20;;;;;;4356805;32;20850;-59
2021/04/12 11:44:58;;;;;;;8.52;5.85;;;20.30;94.50;;;;;;4372687;32;20197;-59
2021/04/12 11:47:46;;;;;;;12.77;6.62;;;20.20;96.00;;;;;;4364999;32;20073;-58
2021/04/12 11:50:33;;;;;;;15.43;7.53;;;20.40;96.20;;;;;;4368330;32;20072;-59
2021/04/12 11:53:29;;;;;;;11.20;7.20;;;20.40;95.40;;;;;;4380995;32;20133;-59
2021/04/12 11:56:46;;;;;;;12.70;6.93;;;20.70;94.50;;;;;;4368297;32;20085;-57
2021/04/12 11:59:30;;;;;;;11.80;6.40;;;20.90;94.20;;;;;;4379300;32;20508;-57
2021/04/12 12:02:16;;;;;;;14.82;7.20;;;20.60;95.80;;;;;;4373693;32;20097;-57
2021/04/12 12:04:52;;;;;;;10.27;6.93;;;20.50;95.60;;;;;;4386781;32;20074;-61
2021/04/12 12:07:36;;;;;;;13.27;7.30;;;20.70;95.70;;;;;;4359340;32;20074;-60
2021/04/12 12:10:13;;;;;;;8.80;6.60;;;20.70;94.30;;;;;;4377986;32;20188;-59
2021/04/12 12:13:05;;;;;;;11.02;7.12;;;20.60;94.20;;;;;;4371974;32;20157;-61
2021/04/12 12:16:09;;;;;;;12.43;7.85;;;20.70;94.00;;;;;;4366570;32;20154;-61
2021/04/12 12:18:58;;;;;;;12.60;7.22;;;20.80;93.40;;;;;;4366756;32;20440;-62
2021/04/12 12:21:43;;;;;;;12.23;7.85;;;20.90;92.90;;;;;;4362755;32;20447;-64
2021/04/12 12:24:40;;;;;;;9.13;6.60;;;20.90;92.50;;;;;;4369713;32;20150;-61
2021/04/12 12:27:23;;;;;;;;;;;21.10;92.20;;;;;;4370508;32;20094;-62
2021/04/12 12:29:52;;;;;;;12.07;6.93;;;21.00;92.70;;;;;;4365891;32;20001;-62
2021/04/12 12:32:33;;;;;;;15.20;6.85;;;21.10;92.70;;;;;;4378613;32;20078;-62
2021/04/12 12:35:53;;;;;;;13.13;6.90;;;21.00;93.30;;;;;;4383399;32;20613;-62
2021/04/12 12:38:58;;;;;;;10.63;5.93;;;20.90;92.70;;;;;;4365212;32;20082;-60
2021/04/12 12:41:26;;;;;;;13.02;6.15;;;21.00;91.50;;;;;;4377779;32;20557;-59
2021/04/12 12:44:02;;;;;;;12.65;6.97;;;21.10;91.40;;;;;;4359858;32;20173;-60
2021/04/12 12:46:31;;;;;;;10.63;6.45;;;21.10;91.20;;;;;;4343674;32;20505;-61
2021/04/12 12:49:13;;;;;;;12.85;6.22;;;21.10;90.70;;;;;;4369973;32;20487;-60
2021/04/12 12:51:52;;;;;;;10.98;6.32;;;21.30;90.70;;;;;;4364362;32;20076;-60
2021/04/12 12:54:28;;;;;;;9.25;6.40;;;21.10;90.30;;;;;;4366677;32;20162;-60
2021/04/12 12:57:30;;;;;;;12.73;5.97;;;21.20;90.40;;;;;;4389008;32;20165;-59
2021/04/12 13:00:26;;;;;;;15.00;6.87;;;21.20;91.00;;;;;;4373496;32;20071;-60
2021/04/12 13:02:52;;;;;;;15.40;7.30;;;21.20;89.70;;;;;;4368637;32;20184;-60
2021/04/12 13:05:23;;;;;;;11.55;6.40;;;21.10;89.30;;;;;;4383282;32;20066;-60
2021/04/12 13:07:50;;;;;;;9.05;6.37;;;21.40;87.90;;;;;;4367406;32;20101;-60
2021/04/12 13:10:25;;;;;;;11.77;6.30;;;21.40;86.20;;;;;;4355693;32;20078;-60
2021/04/12 13:12:53;;;;;;;9.18;5.62;;;21.10;88.50;;;;;;4376822;32;20605;-61
2021/04/12 13:15:34;;;;;;;8.20;5.75;;;21.10;89.90;;;;;;4353090;32;20164;-61
2021/04/12 13:18:28;;;;;;;11.50;6.72;;;21.20;86.30;;;;;;4369049;32;20089;-59
2021/04/12 13:21:06;;;;;;;10.73;5.62;;;21.10;84.90;;;;;;4368779;32;20081;-60
2021/04/12 13:23:45;;;;;;;9.25;5.65;;;21.20;85.70;;;;;;4379978;32;20149;-60
2021/04/12 13:26:45;;;;;;;13.05;5.70;;;21.20;86.60;;;;;;4383300;32;20137;-62
2021/04/12 13:29:31;;;;;;;9.20;5.50;;;21.10;86.10;;;;;;4315966;32;20437;-61
2021/04/12 13:32:11;;;;;;;10.73;5.50;;;21.20;86.60;;;;;;4349603;32;20509;-60
2021/04/12 13:34:47;;;;;;;13.93;5.25;;;21.20;85.60;;;;;;4333732;32;20077;-59
2021/04/12 13:37:27;;;;;;;;;;;21.10;80.90;;;;;;4368710;32;20062;-59
2021/04/12 13:40:17;;;;;;;9.80;4.87;;;21.20;81.70;;;;;;4376345;32;20070;-59
2021/04/12 13:43:02;;;;;;;8.13;5.65;;;21.10;84.50;;;;;;4370989;32;20101;-61
2021/04/12 13:45:32;;;;;;;8.15;4.50;;;20.90;86.00;;;;;;4339727;32;20070;-59
2021/04/12 13:48:07;;;;;;;13.38;6.10;;;21.00;84.70;;;;;;4374337;32;20070;-61
2021/04/12 13:50:47;;;;;;;12.75;6.53;;;21.00;90.40;;;;;;4363453;32;20086;-60
2021/04/12 13:53:18;;;;;;;21.02;7.07;;;20.90;91.30;;;;;;4365831;32;20082;-59
2021/04/12 13:55:54;;;;;;;10.77;5.57;;;20.60;94.60;;;;;;4358213;32;20488;-61
2021/04/12 13:58:30;;;;;;;9.63;5.75;;;20.30;96.00;;;;;;4387960;32;20089;-59
2021/04/12 14:01:04;;;;;;;;;;;20.20;96.20;;;;;;4385394;32;20595;-59
2021/04/12 14:03:38;;;;;;;11.80;6.68;;;20.10;96.40;;;;;;4366664;32;19973;-61
2021/04/12 14:06:07;;;;;;;15.57;7.00;;;20.00;96.30;;;;;;4352701;32;20148;-59
2021/04/12 14:08:53;;;;;;;12.63;7.68;;;20.00;96.80;;;;;;4370717;32;20130;-60
2021/04/12 14:11:34;;;;;;;12.55;7.93;;;19.80;97.70;;;;;;4368372;32;20098;-60
2021/04/12 14:14:20;;;;;;;12.93;8.45;;;19.60;98.80;;;;;;4366760;32;20062;-61
2021/04/12 14:16:46;;;;;;;16.80;9.25;;;19.50;99.70;;;;;;4373567;32;20068;-60
2021/04/12 14:19:24;;;;;;;14.63;8.52;;;19.40;99.90;;;;;;4370527;32;20067;-58
2021/04/12 14:21:50;;;;;;;19.58;8.77;;;19.30;99.90;;;;;;4363816;32;20102;-60
2021/04/12 14:24:33;;;;;;;15.50;8.60;;;19.20;99.90;;;;;;4357147;32;20529;-60
2021/04/12 14:27:03;;;;;;;13.52;8.57;;;19.20;99.90;;;;;;4381924;32;20519;-60
2021/04/12 14:29:36;;;;;;;12.32;7.47;;;19.00;99.90;;;;;;4372343;32;20070;-58
2021/04/12 14:32:04;;;;;;;11.18;6.82;;;18.90;99.90;;;;;;4353019;32;20211;-58
2021/04/12 14:34:38;;;;;;;11.02;6.80;;;18.80;99.90;;;;;;4375053;32;20109;-61
2021/04/12 14:37:07;;;;;;;13.48;7.28;;;18.80;99.90;;;;;;4374604;32;20101;-60
2021/04/12 14:39:33;;;;;;;11.82;7.53;;;18.80;99.90;;;;;;4341680;32;20077;-60
2021/04/12 14:42:27;;;;;;;10.60;6.87;;;18.70;99.90;;;;;;4374567;32;20073;-59
2021/04/12 14:45:07;;;;;;;13.23;8.00;;;18.50;99.90;;;;;;4374147;32;20058;-60
2021/04/12 14:47:42;;;;;;;11.40;6.90;;;18.40;99.90;;;;;;4363267;32;20046;-58
2021/04/12 14:50:19;;;;;;;11.88;7.28;;;18.30;99.90;;;;;;4349144;32;20135;-60
2021/04/12 14:52:50;;;;;;;16.75;7.97;;;18.30;99.90;;;;;;4366250;32;20186;-59